Time;durP1;ratioP1;P1;durP2;ratioP2;P2;SDS_P1;SDS_P2;PMS_P1;PMS_P2;Temp;Humidity;BMP_temperature;BMP_pressure;BME280_temperature;BME280_humidity;BME280_pressure;Samples;Min_cycle;Max_cycle;Signal;HPM_P1;HPM_P2
2022/05/27 00:02:24;;;;;;;13.13;11.17;;;;;;;23.96;64.40;99792.91;4991340;28;20670;-62
2022/05/27 00:04:50;;;;;;;15.93;11.57;;;;;;;23.94;64.57;99783.38;4991437;28;20225;-62
2022/05/27 00:07:17;;;;;;;14.17;10.77;;;;;;;23.96;64.67;99795.53;4991295;28;20201;-61
2022/05/27 00:09:44;;;;;;;11.67;10.00;;;;;;;23.95;64.91;99785.09;4991187;28;20650;-62
2022/05/27 00:12:11;;;;;;;12.60;10.80;;;;;;;23.91;64.77;99784.34;4976717;28;20586;-62
2022/05/27 00:14:38;;;;;;;16.17;11.83;;;;;;;23.89;64.81;99791.41;4972040;28;20586;-62
2022/05/27 00:17:04;;;;;;;14.80;12.10;;;;;;;23.95;64.83;99779.84;4970951;28;20453;-62
2022/05/27 00:19:32;;;;;;;14.17;10.83;;;;;;;23.96;64.05;99784.16;4971926;28;20551;-62
2022/05/27 00:21:59;;;;;;;16.90;11.07;;;;;;;23.95;64.19;99790.34;4971096;28;20230;-62
2022/05/27 00:24:26;;;;;;;15.97;11.73;;;;;;;23.87;64.81;99784.50;4970967;28;20202;-61
2022/05/27 00:26:53;;;;;;;17.57;12.10;;;;;;;23.85;64.98;99781.03;4970956;28;20559;-61
2022/05/27 00:29:20;;;;;;;14.20;11.32;;;;;;;23.75;64.89;99788.38;4970796;28;20452;-62
2022/05/27 00:31:46;;;;;;;12.53;11.27;;;;;;;23.75;64.53;99783.13;4971005;28;20266;-61
2022/05/27 00:34:14;;;;;;;15.90;10.97;;;;;;;23.75;64.57;99782.25;4971116;28;20666;-61
2022/05/27 00:36:42;;;;;;;14.67;11.23;;;;;;;23.71;64.78;99775.38;4970992;28;20261;-61
2022/05/27 00:39:09;;;;;;;13.30;10.77;;;;;;;23.61;65.01;99771.34;4971066;28;20202;-61
2022/05/27 00:41:36;;;;;;;11.80;10.50;;;;;;;23.55;65.37;99764.53;4970938;28;20199;-61
2022/05/27 00:44:04;;;;;;;14.40;10.37;;;;;;;23.50;64.95;99766.47;4971061;28;20227;-61
2022/05/27 00:46:34;;;;;;;13.33;11.27;;;;;;;23.52;65.77;99774.25;4970602;28;20205;-62
2022/05/27 00:49:05;;;;;;;14.63;10.97;;;;;;;23.39;65.20;99768.56;4970947;28;20569;-62
2022/05/27 00:51:35;;;;;;;12.40;11.20;;;;;;;23.43;65.50;99775.44;4970845;28;20257;-61
2022/05/27 00:54:10;;;;;;;13.40;10.30;;;;;;;23.39;65.82;99765.94;4970889;28;20187;-62
2022/05/27 00:56:41;;;;;;;13.73;9.47;;;;;;;23.32;65.45;99764.38;4970624;28;20669;-62
2022/05/27 00:59:15;;;;;;;14.23;9.80;;;;;;;23.30;65.16;99769.66;4970701;28;20629;-61
2022/05/27 01:01:43;;;;;;;12.60;9.97;;;;;;;23.34;64.90;99766.06;4970879;28;20195;-63
2022/05/27 01:04:11;;;;;;;14.87;10.57;;;;;;;23.39;64.59;99771.19;4971076;28;20297;-62
2022/05/27 01:06:38;;;;;;;16.87;10.30;;;;;;;23.36;65.25;99773.88;4970934;28;20275;-62
2022/05/27 01:09:07;;;;;;;12.47;10.27;;;;;;;23.33;65.83;99772.19;4971030;28;20306;-62
2022/05/27 01:11:46;;;;;;;12.90;10.43;;;;;;;23.29;65.75;99772.34;4970523;28;20206;-62
2022/05/27 01:14:28;;;;;;;16.43;10.17;;;;;;;23.27;65.17;99768.91;4970978;28;20202;-62
2022/05/27 01:17:03;;;;;;;13.33;9.70;;;;;;;23.15;65.81;99775.41;4974033;28;20194;-62
2022/05/27 01:22:44;;;;;;;14.55;10.63;;;;;;;23.19;65.54;99779.63;4887629;28;2524614;-62
2022/05/27 01:25:48;;;;;;;15.07;10.03;;;;;;;23.18;65.24;99772.69;4975365;28;20219;-62
2022/05/27 01:28:28;;;;;;;13.37;10.50;;;;;;;23.14;65.96;99778.91;4975311;28;20199;-61
2022/05/27 01:31:01;;;;;;;16.07;10.87;;;;;;;22.97;66.40;99778.53;4974827;28;20285;-61
2022/05/27 01:33:37;;;;;;;13.73;10.03;;;;;;;22.97;66.27;99775.06;4974887;28;20198;-63
2022/05/27 01:36:12;;;;;;;15.67;11.83;;;;;;;22.97;66.29;99775.06;4975095;28;20191;-63
2022/05/27 01:38:44;;;;;;;16.50;10.07;;;;;;;22.92;66.90;99777.81;4974817;28;20665;-62
2022/05/27 01:41:16;;;;;;;13.30;10.07;;;;;;;22.85;66.74;99766.66;4974912;28;20195;-61
2022/05/27 01:43:49;;;;;;;12.53;9.90;;;;;;;22.82;67.14;99776.38;4974804;28;21031;-61
2022/05/27 01:46:22;;;;;;;14.60;10.23;;;;;;;22.72;67.28;99778.41;4974732;28;20250;-63
2022/05/27 01:49:03;;;;;;;13.97;10.67;;;;;;;22.65;67.92;99776.88;4974523;28;20666;-61
2022/05/27 01:51:35;;;;;;;14.23;10.00;;;;;;;22.66;67.96;99780.34;4974518;28;20210;-62
2022/05/27 01:54:08;;;;;;;16.50;10.83;;;;;;;22.63;68.00;99781.31;4973929;28;20925;-63
2022/05/27 01:56:40;;;;;;;13.23;10.60;;;;;;;22.66;67.58;99782.97;4974628;28;20194;-63
2022/05/27 01:59:10;;;;;;;11.20;10.10;;;;;;;22.59;68.22;99789.22;4974978;28;20186;-63
2022/05/27 02:01:43;;;;;;;13.17;10.93;;;;;;;22.59;67.82;99790.09;4974333;28;20202;-62
2022/05/27 02:04:14;;;;;;;18.00;10.73;;;;;;;22.42;68.64;99762.63;4974246;28;20270;-62
2022/05/27 02:06:46;;;;;;;16.25;11.73;;;;;;;22.56;68.67;99789.31;4974098;28;20445;-62
2022/05/27 02:09:19;;;;;;;18.60;10.73;;;;;;;22.51;68.95;99791.19;4974477;28;20665;-62
2022/05/27 02:11:48;;;;;;;13.47;10.03;;;;;;;22.47;69.02;99794.81;4974322;28;20227;-61
2022/05/27 02:14:19;;;;;;;14.40;11.07;;;;;;;22.41;69.45;99790.63;4973842;28;20230;-61
2022/05/27 02:16:52;;;;;;;14.07;10.63;;;;;;;22.36;69.83;99786.41;4974384;28;20195;-62
2022/05/27 02:19:24;;;;;;;11.70;10.47;;;;;;;22.34;69.64;99787.28;4974299;28;20281;-61
2022/05/27 02:21:54;;;;;;;15.67;10.70;;;;;;;22.23;70.07;99786.72;4974015;28;20285;-62
2022/05/27 02:24:25;;;;;;;15.30;10.83;;;;;;;22.20;70.22;99783.31;4974028;28;20195;-62
2022/05/27 02:26:56;;;;;;;11.77;10.60;;;;;;;22.17;69.86;99791.25;4973758;28;20195;-62
2022/05/27 02:29:28;;;;;;;19.80;10.30;;;;;;;22.19;69.83;99800.81;4974011;28;20198;-62
2022/05/27 02:32:01;;;;;;;15.50;11.10;;;;;;;22.22;69.78;99805.09;4973789;28;20195;-62
2022/05/27 02:37:26;;;;;;;13.17;11.17;;;;;;;22.15;70.46;99793.91;4991281;28;20201;-63
2022/05/27 02:39:53;;;;;;;15.13;11.70;;;;;;;22.13;70.58;99795.72;4992657;28;20290;-63
2022/05/27 02:42:31;;;;;;;25.40;11.87;;;;;;;22.12;70.56;99788.75;4990428;28;20202;-63
2022/05/27 02:45:10;;;;;;;13.27;11.07;;;;;;;22.16;70.33;99794.78;4992723;28;20225;-62
2022/05/27 02:47:47;;;;;;;16.53;11.27;;;;;;;22.19;70.34;99798.19;4992459;28;20697;-63
2022/05/27 02:50:22;;;;;;;15.20;10.60;;;;;;;22.19;69.81;99794.69;4992768;28;20305;-61
2022/05/27 02:52:58;;;;;;;14.03;11.67;;;;;;;22.20;69.58;99797.25;4990699;28;20681;-62
2022/05/27 02:55:33;;;;;;;12.87;11.33;;;;;;;22.26;69.32;99801.47;4990521;28;20190;-63
2022/05/27 02:58:02;;;;;;;15.13;11.13;;;;;;;22.29;69.40;99793.53;4992968;28;20264;-61
2022/05/27 03:00:32;;;;;;;14.53;11.90;;;;;;;22.30;68.86;99801.34;4992607;28;20646;-61
2022/05/27 03:03:00;;;;;;;14.52;12.02;;;;;;;22.38;68.95;99800.31;4992360;28;20448;-61
2022/05/27 03:05:32;;;;;;;18.30;10.80;;;;;;;22.40;68.25;99796.75;4992666;28;20229;-61
2022/05/27 03:08:09;;;;;;;13.70;10.57;;;;;;;22.46;67.86;99804.44;4992519;28;20193;-61
2022/05/27 03:10:57;;;;;;;15.37;11.13;;;;;;;22.44;67.79;99801.00;4992398;28;20289;-62
2022/05/27 03:13:56;;;;;;;14.57;10.33;;;;;;;22.51;67.06;99797.31;4992729;28;20194;-62
2022/05/27 03:16:29;;;;;;;19.02;12.23;;;;;;;22.58;67.00;99798.84;4988887;28;20452;-62
2022/05/27 03:19:24;;;;;;;13.40;10.60;;;;;;;22.68;66.29;99802.97;4992444;28;20286;-62
2022/05/27 03:21:59;;;;;;;12.73;10.57;;;;;;;22.77;65.87;99794.84;4992246;28;20709;-62
2022/05/27 03:24:35;;;;;;;12.33;10.50;;;;;;;22.78;65.51;99800.94;4992113;28;20193;-62
2022/05/27 03:27:14;;;;;;;14.90;10.87;;;;;;;22.84;65.43;99804.25;4992239;28;20198;-62
2022/05/27 03:29:49;;;;;;;14.90;11.70;;;;;;;22.90;65.30;99811.09;4992099;28;20657;-62
2022/05/27 03:32:28;;;;;;;11.57;10.40;;;;;;;22.99;65.31;99804.72;4992124;28;20201;-62
2022/05/27 03:35:04;;;;;;;15.00;10.73;;;;;;;23.05;64.94;99804.53;4992098;28;20219;-62
2022/05/27 03:37:38;;;;;;;14.80;12.07;;;;;;;23.22;64.16;99800.50;4990521;28;20919;-62
2022/05/27 03:40:10;;;;;;;12.63;11.03;;;;;;;23.31;63.86;99804.63;4992276;28;20198;-61
2022/05/27 03:42:40;;;;;;;14.97;10.90;;;;;;;23.37;63.75;99807.06;4992327;28;20197;-62
2022/05/27 03:45:10;;;;;;;12.37;10.60;;;;;;;23.31;63.56;99802.88;4992001;28;20280;-61
2022/05/27 03:47:39;;;;;;;16.07;11.97;;;;;;;23.35;63.17;99793.13;4992206;28;20199;-61
2022/05/27 03:50:10;;;;;;;17.73;12.13;;;;;;;23.33;62.62;99784.44;4990996;28;20808;-61
2022/05/27 03:52:40;;;;;;;13.63;11.33;;;;;;;23.52;62.53;99792.63;4991811;28;20193;-62
2022/05/27 03:55:10;;;;;;;19.57;11.63;;;;;;;23.57;62.24;99798.59;4992028;28;20190;-62
2022/05/27 03:57:37;;;;;;;12.10;10.90;;;;;;;23.56;61.97;99794.25;4991449;28;20665;-62
2022/05/27 04:00:09;;;;;;;16.73;11.40;;;;;;;23.57;62.18;99801.22;4991595;28;20206;-62
2022/05/27 04:02:36;;;;;;;13.17;10.60;;;;;;;23.60;61.83;99801.09;4991435;28;20205;-62
2022/05/27 04:05:03;;;;;;;14.87;11.33;;;;;;;23.71;62.44;99801.63;4991524;28;20677;-63
2022/05/27 04:07:31;;;;;;;12.20;10.77;;;;;;;23.72;62.53;99801.59;4991276;28;20190;-63
2022/05/27 04:09:58;;;;;;;15.80;11.33;;;;;;;23.67;62.52;99800.03;4991708;28;20198;-63
2022/05/27 04:12:25;;;;;;;17.07;11.03;;;;;;;23.74;62.70;99797.16;4991352;28;20197;-61
2022/05/27 04:14:52;;;;;;;17.03;10.90;;;;;;;23.72;61.95;99804.22;4991101;28;20190;-62
2022/05/27 04:17:31;;;;;;;11.87;10.60;;;;;;;23.64;61.89;99798.34;4990598;28;20218;-62
2022/05/27 04:19:59;;;;;;;15.60;11.60;;;;;;;23.65;62.19;99792.19;4991391;28;20237;-61
2022/05/27 04:22:27;;;;;;;17.02;11.85;;;;;;;23.76;61.59;99805.81;4990428;28;20812;-61
2022/05/27 04:24:56;;;;;;;15.40;11.30;;;;;;;23.94;61.04;99800.00;4991285;28;20205;-61
2022/05/27 04:27:23;;;;;;;16.00;11.13;;;;;;;24.01;60.63;99803.25;4991008;28;20205;-62
2022/05/27 04:29:51;;;;;;;11.90;10.30;;;;;;;23.99;61.49;99800.69;4991338;28;20182;-61
2022/05/27 04:32:20;;;;;;;14.83;11.07;;;;;;;24.05;61.64;99803.13;4991069;28;20270;-62
2022/05/27 04:34:47;;;;;;;14.37;10.73;;;;;;;24.06;60.51;99796.94;4990988;28;20198;-61
2022/05/27 04:37:14;;;;;;;13.40;10.70;;;;;;;24.04;60.50;99797.91;4991064;28;20199;-63
2022/05/27 04:39:42;;;;;;;23.73;11.23;;;;;;;24.13;60.30;99795.00;4990967;28;20201;-62
2022/05/27 04:42:10;;;;;;;18.73;11.77;;;;;;;24.20;60.30;99790.41;4990499;28;20451;-62
2022/05/27 04:44:37;;;;;;;14.53;10.97;;;;;;;24.34;59.54;99798.66;4989776;28;20604;-61
2022/05/27 04:47:05;;;;;;;12.83;10.80;;;;;;;24.36;60.07;99800.34;4990932;28;20226;-62
2022/05/27 04:52:17;;;;;;;16.13;10.60;;;;;;;24.34;60.86;99794.25;4995030;28;20194;-62
2022/05/27 04:54:44;;;;;;;13.88;11.35;;;;;;;24.26;61.41;99793.66;4994111;28;20534;-61
2022/05/27 04:57:15;;;;;;;13.20;11.27;;;;;;;24.39;60.93;99791.50;4994715;28;20206;-62
2022/05/27 04:59:45;;;;;;;17.07;11.23;;;;;;;24.38;60.84;99790.63;4994950;28;20288;-62
2022/05/27 05:02:12;;;;;;;18.10;11.07;;;;;;;24.43;61.35;99793.94;4994568;28;20264;-61
2022/05/27 05:04:38;;;;;;;20.80;11.33;;;;;;;24.47;61.16;99790.31;4994602;28;20210;-61
2022/05/27 05:07:08;;;;;;;15.63;10.90;;;;;;;24.42;61.30;99792.22;4994601;28;20221;-61
2022/05/27 05:09:35;;;;;;;15.03;11.07;;;;;;;24.40;61.23;99785.31;4994186;28;20226;-61
2022/05/27 05:12:02;;;;;;;15.67;12.10;;;;;;;24.47;61.41;99792.94;4993986;28;20198;-62
2022/05/27 05:14:31;;;;;;;17.10;11.53;;;;;;;24.57;60.98;99786.44;4993853;28;20252;-63
2022/05/27 05:16:57;;;;;;;19.13;11.47;;;;;;;24.72;60.47;99792.91;4994449;28;20206;-62
2022/05/27 05:19:24;;;;;;;13.70;10.87;;;;;;;24.75;59.70;99784.06;4991884;28;20200;-62
2022/05/27 05:21:51;;;;;;;17.60;11.50;;;;;;;24.73;59.84;99786.72;4992973;28;20601;-62
2022/05/27 05:24:18;;;;;;;12.83;10.93;;;;;;;24.76;59.83;99789.25;4991037;28;20198;-62
2022/05/27 05:26:45;;;;;;;12.90;10.77;;;;;;;24.89;58.99;99781.78;4993232;28;20225;-61
2022/05/27 05:29:11;;;;;;;15.57;11.37;;;;;;;25.03;58.37;99785.63;4994056;28;20190;-62
2022/05/27 05:31:40;;;;;;;14.50;11.32;;;;;;;25.20;57.45;99787.59;4992389;28;20439;-63
2022/05/27 05:34:06;;;;;;;13.98;10.10;;;;;;;25.42;55.81;99785.00;4993633;28;20190;-63
2022/05/27 05:36:34;;;;;;;17.20;10.40;;;;;;;25.48;56.00;99788.28;4993618;28;20199;-62
2022/05/27 05:39:01;;;;;;;13.93;10.73;;;;;;;25.57;56.03;99797.59;4993615;28;20198;-62
2022/05/27 05:41:30;;;;;;;17.83;11.03;;;;;;;25.57;55.09;99789.69;4993209;28;20202;-63
2022/05/27 05:43:57;;;;;;;19.17;10.13;;;;;;;25.64;54.69;99797.28;4993546;28;20190;-62
2022/05/27 05:46:24;;;;;;;12.05;9.63;;;;;;;25.70;54.48;99790.91;4993326;28;20222;-56
2022/05/27 05:48:52;;;;;;;11.55;9.63;;;;;;;25.77;54.15;99790.56;4993351;28;20201;-56
2022/05/27 05:51:19;;;;;;;13.45;10.77;;;;;;;25.87;53.96;99803.38;4992267;28;20444;-56
2022/05/27 05:53:46;;;;;;;11.20;10.00;;;;;;;25.79;53.93;99777.38;4993167;28;20201;-55
2022/05/27 05:56:13;;;;;;;14.75;9.95;;;;;;;25.78;53.96;99802.84;4993138;28;20201;-55
2022/05/27 05:58:40;;;;;;;14.73;9.93;;;;;;;25.64;54.18;99797.28;4992798;28;20455;-55
2022/05/27 06:01:07;;;;;;;14.73;10.40;;;;;;;25.69;54.25;99797.94;4992915;28;20270;-56
2022/05/27 06:03:34;;;;;;;12.00;10.03;;;;;;;25.72;54.36;99795.19;4993057;28;20570;-55
2022/05/27 06:06:02;;;;;;;13.33;9.57;;;;;;;25.82;54.41;99800.09;4992815;28;20707;-55
2022/05/27 06:08:29;;;;;;;14.60;11.00;;;;;;;25.93;54.06;99793.44;4991925;28;20461;-55
2022/05/27 06:10:55;;;;;;;19.20;10.57;;;;;;;25.99;53.84;99787.91;4992545;28;20449;-55
2022/05/27 06:13:22;;;;;;;16.90;10.70;;;;;;;26.09;52.82;99789.25;4992458;28;20221;-55
2022/05/27 06:15:49;;;;;;;15.60;10.95;;;;;;;26.12;53.33;99794.38;4992065;28;20194;-55
2022/05/27 06:18:16;;;;;;;14.82;11.63;;;;;;;26.05;52.83;99792.06;4991581;28;20627;-56
2022/05/27 06:20:43;;;;;;;12.60;10.43;;;;;;;26.16;53.28;99788.09;4992578;28;20234;-55
2022/05/27 06:23:12;;;;;;;11.00;9.90;;;;;;;26.23;52.14;99788.72;4992049;28;20198;-56
2022/05/27 06:25:39;;;;;;;13.37;10.27;;;;;;;26.38;51.82;99790.66;4991810;28;20466;-56
2022/05/27 06:36:21;;;;;;;12.80;9.30;;;;;;;26.38;49.54;99788.88;4991852;28;20282;-56
2022/05/27 06:38:49;;;;;;;10.20;9.20;;;;;;;26.42;48.87;99792.25;4992030;28;20688;-56
2022/05/27 06:41:17;;;;;;;13.50;8.75;;;;;;;26.28;48.43;99752.47;4991951;28;20669;-56
2022/05/27 06:43:45;;;;;;;10.98;8.43;;;;;;;26.39;48.03;99779.22;4992092;28;20190;-64
2022/05/27 06:46:13;;;;;;;12.00;8.70;;;;;;;26.37;48.55;99783.66;4991786;28;20225;-62
2022/05/27 06:48:40;;;;;;;9.50;8.50;;;;;;;26.45;48.32;99776.31;4992082;28;20220;-63
2022/05/27 06:51:08;;;;;;;10.50;9.02;;;;;;;26.54;49.09;99777.66;4991950;28;20206;-62
2022/05/27 06:53:35;;;;;;;12.55;9.05;;;;;;;26.64;49.13;99777.22;4991572;28;20555;-61
2022/05/27 06:56:03;;;;;;;11.93;9.02;;;;;;;26.69;48.13;99772.59;4991820;28;20198;-62
2022/05/27 06:58:30;;;;;;;12.23;8.63;;;;;;;26.68;47.66;99776.13;4991717;28;20202;-62
2022/05/27 07:00:57;;;;;;;8.27;7.43;;;;;;;26.75;47.97;99776.72;4991794;28;20201;-63
2022/05/27 07:03:24;;;;;;;11.80;7.43;;;;;;;26.73;48.55;99773.28;4991692;28;20221;-62
2022/05/27 07:05:51;;;;;;;10.48;7.65;;;;;;;26.80;48.38;99769.50;4991167;28;20675;-63
2022/05/27 07:08:18;;;;;;;10.40;7.80;;;;;;;26.96;47.98;99762.59;4991508;28;20198;-62
2022/05/27 07:10:45;;;;;;;13.30;8.48;;;;;;;27.08;48.08;99766.44;4991636;28;20218;-62
2022/05/27 07:13:14;;;;;;;10.75;8.80;;;;;;;27.22;48.34;99762.19;4990239;28;20444;-62
2022/05/27 07:15:41;;;;;;;8.85;7.78;;;;;;;27.36;47.37;99765.03;4991361;28;20637;-63
2022/05/27 07:18:09;;;;;;;10.18;7.88;;;;;;;27.25;47.46;99734.84;4990773;28;20194;-63
2022/05/27 07:20:37;;;;;;;12.95;7.75;;;;;;;27.34;47.43;99755.50;4991131;28;20222;-62
2022/05/27 07:23:04;;;;;;;10.43;8.63;;;;;;;27.47;47.96;99746.94;4990620;28;20681;-63
2022/05/27 07:25:35;;;;;;;11.25;8.25;;;;;;;27.50;47.93;99749.44;4990973;28;20198;-63
2022/05/27 07:28:02;;;;;;;15.20;8.75;;;;;;;27.64;47.14;99739.97;4990793;28;20692;-63
2022/05/27 07:30:30;;;;;;;12.07;7.53;;;;;;;27.75;46.03;99749.06;4991088;28;20203;-63
2022/05/27 07:32:57;;;;;;;11.75;7.28;;;;;;;27.81;45.11;99747.91;4990896;28;20526;-63
2022/05/27 07:35:24;;;;;;;12.23;8.02;;;;;;;27.88;46.13;99738.78;4990819;28;20198;-63
2022/05/27 07:37:51;;;;;;;9.98;7.95;;;;;;;27.97;46.82;99736.50;4990670;28;20677;-63
2022/05/27 07:40:17;;;;;;;12.20;8.23;;;;;;;28.09;45.96;99735.06;4991144;28;20201;-63
2022/05/27 07:42:45;;;;;;;11.73;6.82;;;;;;;28.18;44.98;99736.38;4990557;28;20197;-63
2022/05/27 07:45:13;;;;;;;10.07;6.85;;;;;;;28.00;42.53;99711.72;4990840;28;20202;-64
2022/05/27 07:47:41;;;;;;;9.32;5.18;;;;;;;28.06;38.82;99744.00;4989864;28;20459;-64
2022/05/27 07:50:11;;;;;;;9.23;5.78;;;;;;;28.25;40.41;99735.13;4990466;28;20206;-64
2022/05/27 07:52:38;;;;;;;7.90;4.53;;;;;;;28.29;38.09;99740.19;4990820;28;20206;-63
2022/05/27 07:55:06;;;;;;;5.68;4.68;;;;;;;28.20;39.54;99738.00;4990535;28;20689;-62
2022/05/27 07:57:33;;;;;;;6.75;5.10;;;;;;;28.19;39.32;99732.78;4995060;28;20197;-63
2022/05/27 08:00:01;;;;;;;7.45;5.32;;;;;;;28.25;41.21;99729.81;4990945;28;20194;-64
2022/05/27 08:02:28;;;;;;;7.40;5.43;;;;;;;28.33;40.73;99725.00;4990614;28;20198;-65
2022/05/27 08:04:57;;;;;;;10.07;5.25;;;;;;;28.42;41.17;99720.09;4976395;28;20203;-62
2022/05/27 08:07:26;;;;;;;8.85;6.00;;;;;;;28.53;39.38;99722.16;4970566;28;21007;-63
2022/05/27 08:09:52;;;;;;;5.35;4.45;;;;;;;28.52;38.24;99712.50;4971266;28;20198;-63
2022/05/27 08:12:19;;;;;;;4.72;4.13;;;;;;;28.67;38.49;99719.66;4971072;28;20250;-62
2022/05/27 08:14:46;;;;;;;7.07;5.00;;;;;;;28.80;38.63;99711.91;4971036;28;20405;-63
2022/05/27 08:17:13;;;;;;;5.38;4.35;;;;;;;28.91;37.00;99720.97;4971384;28;20186;-64
2022/05/27 08:19:39;;;;;;;5.90;3.70;;;;;;;28.84;35.01;99721.38;4971365;28;20273;-63
2022/05/27 08:22:08;;;;;;;7.03;4.07;;;;;;;28.96;35.46;99710.13;4970872;28;20788;-63
2022/05/27 08:24:34;;;;;;;7.90;4.60;;;;;;;29.10;36.35;99712.84;4970859;28;20301;-62
2022/05/27 08:27:01;;;;;;;8.80;4.70;;;;;;;29.38;36.14;99707.75;4971212;28;20223;-62
2022/05/27 08:29:29;;;;;;;7.75;4.00;;;;;;;29.56;36.08;99697.88;4971152;28;20195;-64
2022/05/27 08:31:56;;;;;;;6.83;5.40;;;;;;;29.75;36.08;99694.06;4969905;28;20466;-63
2022/05/27 08:39:52;;;;;;;5.82;4.40;;;;;;;30.15;35.01;99684.63;4990755;28;20276;-62
2022/05/27 08:42:32;;;;;;;7.65;5.35;;;;;;;30.26;35.39;99684.81;4990842;28;20190;-62
2022/05/27 08:45:09;;;;;;;6.95;5.78;;;;;;;30.38;34.61;99686.72;4990313;28;20198;-63
2022/05/27 08:47:39;;;;;;;8.75;5.20;;;;;;;30.48;33.84;99689.69;4990207;28;20214;-62
2022/05/27 08:50:12;;;;;;;7.20;4.72;;;;;;;30.36;32.96;99656.81;4988643;28;20198;-62
2022/05/27 08:52:45;;;;;;;5.40;3.83;;;;;;;30.32;32.45;99678.28;4985351;28;20186;-62
2022/05/27 09:00:52;;;;;;;6.43;3.55;;;;;;;30.33;31.32;99672.00;4990313;28;20233;-62
2022/05/27 09:03:20;;;;;;;5.95;3.40;;;;;;;30.31;30.15;99684.53;4990435;28;21034;-62
2022/05/27 09:05:59;;;;;;;3.75;2.85;;;;;;;30.31;30.10;99681.88;4990599;28;20201;-61
2022/05/27 09:08:28;;;;;;;5.20;3.38;;;;;;;30.34;30.21;99674.59;4989662;28;20452;-63
2022/05/27 09:10:59;;;;;;;5.55;3.47;;;;;;;30.32;29.74;99683.59;4990649;28;20193;-63
2022/05/27 09:13:35;;;;;;;4.70;2.95;;;;;;;30.31;30.00;99665.97;4990107;28;20198;-62
2022/05/27 09:16:10;;;;;;;7.00;3.72;;;;;;;30.13;31.42;99667.09;4989832;28;20197;-63
2022/05/27 09:18:47;;;;;;;4.57;4.18;;;;;;;30.37;31.07;99657.66;4989734;28;20213;-63
2022/05/27 09:21:25;;;;;;;5.10;3.15;;;;;;;30.55;31.89;99653.00;4989674;28;20241;-63
2022/05/27 09:24:14;;;;;;;3.70;3.33;;;;;;;30.71;29.80;99643.13;4989504;28;20186;-63
2022/05/27 09:26:44;;;;;;;7.18;3.50;;;;;;;30.49;28.41;99656.88;4986207;28;20979;-64
2022/05/27 09:29:28;;;;;;;6.03;3.50;;;;;;;30.57;28.71;99651.13;4983556;28;20209;-63
2022/05/27 09:32:04;;;;;;;5.40;3.40;;;;;;;30.52;29.45;99639.94;4989071;28;20190;-63
2022/05/27 09:34:34;;;;;;;4.97;3.28;;;;;;;30.39;30.42;99643.34;4987018;28;20197;-63
2022/05/27 09:37:04;;;;;;;5.93;3.55;;;;;;;30.39;30.72;99626.59;4992623;28;20205;-63
2022/05/27 09:39:33;;;;;;;3.53;3.22;;;;;;;30.23;30.65;99629.31;4993149;28;20220;-63
2022/05/27 09:42:09;;;;;;;4.97;3.28;;;;;;;30.37;30.70;99625.84;4993205;28;20198;-63
2022/05/27 09:44:43;;;;;;;8.45;4.95;;;;;;;30.66;31.55;99619.53;4992641;28;20927;-63
2022/05/27 09:47:10;;;;;;;7.97;6.10;;;;;;;30.82;31.25;99614.94;4993827;28;20244;-64
2022/05/27 09:49:38;;;;;;;7.10;4.05;;;;;;;30.88;30.77;99601.28;4992857;28;20198;-63
2022/05/27 09:52:06;;;;;;;4.30;3.70;;;;;;;30.56;30.26;99585.75;4992869;28;20206;-63
2022/05/27 09:54:40;;;;;;;12.05;4.63;;;;;;;30.86;31.14;99616.47;4992915;28;20186;-68
2022/05/27 09:57:17;;;;;;;5.85;3.63;;;;;;;30.93;30.27;99623.09;4989158;28;20239;-63
2022/05/27 09:59:46;;;;;;;7.00;4.22;;;;;;;30.85;30.74;99609.44;4988122;28;20197;-63
2022/05/27 10:02:27;;;;;;;6.20;4.15;;;;;;;31.02;31.52;99604.84;4991887;28;20451;-63
2022/05/27 10:04:57;;;;;;;5.63;4.68;;;;;;;31.17;29.98;99603.88;4991749;28;20652;-63
2022/05/27 10:07:33;;;;;;;5.38;4.15;;;;;;;31.12;29.82;99600.66;4992091;28;20217;-63
2022/05/27 10:10:28;;;;;;;8.40;4.88;;;;;;;30.83;29.53;99546.81;4993008;28;20193;-62
2022/05/27 10:12:55;;;;;;;8.95;3.97;;;;;;;31.20;29.53;99587.72;4992336;28;20217;-63
2022/05/27 10:15:32;;;;;;;8.00;4.32;;;;;;;31.22;29.91;99588.47;4992217;28;20194;-62
2022/05/27 10:18:17;;;;;;;4.75;4.22;;;;;;;31.27;29.31;99579.25;4992750;28;20213;-62
2022/05/27 10:20:50;;;;;;;6.63;4.17;;;;;;;31.36;29.09;99569.81;4990881;28;20993;-61
2022/05/27 10:23:24;;;;;;;7.47;3.83;;;;;;;31.07;29.71;99565.63;4992408;28;20190;-63
2022/05/27 10:25:53;;;;;;;7.53;4.43;;;;;;;31.10;29.81;99573.34;4990953;28;20687;-62
2022/05/27 10:28:25;;;;;;;6.88;4.68;;;;;;;31.30;30.26;99562.25;4991475;28;20226;-63
2022/05/27 10:30:55;;;;;;;6.10;4.78;;;;;;;31.52;30.54;99563.38;4991566;28;20202;-62
2022/05/27 10:33:24;;;;;;;7.03;4.30;;;;;;;31.65;29.11;99558.06;4991371;28;20198;-64
2022/05/27 10:35:53;;;;;;;7.13;4.57;;;;;;;31.66;29.46;99527.88;4991482;28;20202;-63
2022/05/27 10:38:45;;;;;;;10.15;5.20;;;;;;;31.93;29.45;99549.88;4991919;28;20221;-63
2022/05/27 10:41:24;;;;;;;7.75;4.30;;;;;;;31.97;28.19;99546.06;4991780;28;20205;-63
2022/05/27 10:44:14;;;;;;;11.43;6.38;;;;;;;32.03;29.77;99542.09;4992207;28;20198;-63
2022/05/27 10:46:48;;;;;;;9.57;4.15;;;;;;;32.21;29.31;99534.63;4990208;28;20269;-63
2022/05/27 10:49:53;;;;;;;9.38;3.95;;;;;;;32.32;28.69;99540.03;4991881;28;20248;-62
2022/05/27 10:52:40;;;;;;;8.98;4.55;;;;;;;32.46;28.00;99534.56;4991701;28;20193;-62
2022/05/27 10:55:18;;;;;;;12.35;4.25;;;;;;;32.37;27.92;99525.44;4991330;28;20202;-63
2022/05/27 11:04:03;;;;;;;8.60;4.55;;;;;;;32.50;28.29;99509.41;4990807;28;20489;-63
2022/05/27 11:06:45;;;;;;;6.43;4.40;;;;;;;32.60;27.83;99513.16;4991538;28;20202;-63
2022/05/27 11:09:30;;;;;;;6.75;4.00;;;;;;;32.74;27.62;99502.34;4991420;28;20194;-62
2022/05/27 11:12:05;;;;;;;6.50;3.67;;;;;;;32.68;26.65;99502.78;4991253;28;20201;-64
2022/05/27 11:17:46;;;;;;;6.47;3.95;;;;;;;32.65;27.21;99497.69;4991279;28;20193;-64
2022/05/27 11:20:41;;;;;;;9.13;4.70;;;;;;;32.81;27.15;99506.22;4980686;28;21011;-62
2022/05/27 11:23:30;;;;;;;7.70;4.22;;;;;;;32.82;27.13;99505.28;4972011;28;20198;-62
2022/05/27 11:26:09;;;;;;;8.07;4.70;;;;;;;32.48;27.11;99506.03;4969874;28;20207;-63
2022/05/27 11:29:00;;;;;;;14.10;4.20;;;;;;;32.67;27.21;99507.25;4971490;28;20249;-63
2022/05/27 11:31:41;;;;;;;8.18;5.43;;;;;;;32.79;27.30;99500.19;4971525;28;20452;-63
2022/05/27 11:34:19;;;;;;;9.23;4.70;;;;;;;32.87;27.30;99492.47;4971970;28;20203;-63
2022/05/27 11:36:58;;;;;;;6.07;3.75;;;;;;;32.87;27.06;99487.16;4971828;28;20194;-63
2022/05/27 11:39:47;;;;;;;12.37;4.10;;;;;;;32.95;27.40;99490.06;4970920;28;21124;-64
2022/05/27 11:42:38;;;;;;;10.25;5.15;;;;;;;33.01;28.43;99478.09;4972088;28;20505;-63
2022/05/27 11:45:15;;;;;;;10.75;4.78;;;;;;;32.82;27.82;99461.84;4971427;28;20292;-63
2022/05/27 11:48:02;;;;;;;14.75;4.68;;;;;;;33.03;27.58;99479.69;4971802;28;20573;-63
2022/05/27 11:50:57;;;;;;;17.15;7.47;;;;;;;33.25;27.65;99477.09;4971800;28;20199;-63
2022/05/27 11:53:46;;;;;;;8.85;4.55;;;;;;;33.35;26.76;99468.41;4971432;28;20582;-63
2022/05/27 11:56:18;;;;;;;8.98;5.80;;;;;;;33.57;27.47;99463.13;4971288;28;20404;-56
2022/05/27 11:58:54;;;;;;;11.85;6.25;;;;;;;33.66;27.46;99455.25;4970963;28;20570;-56
2022/05/27 12:01:35;;;;;;;5.43;4.30;;;;;;;33.60;27.21;99447.72;4971467;28;20195;-56
2022/05/27 12:04:11;;;;;;;7.43;4.72;;;;;;;33.52;27.36;99449.28;4971386;28;20201;-55
2022/05/27 12:06:44;;;;;;;12.23;4.97;;;;;;;33.28;27.52;99443.19;4971345;28;20205;-55
2022/05/27 12:09:20;;;;;;;7.65;4.70;;;;;;;33.07;27.84;99451.06;4971171;28;20575;-57
2022/05/27 12:11:51;;;;;;;9.88;6.00;;;;;;;33.09;28.31;99444.63;4970924;28;20449;-56
2022/05/27 12:14:22;;;;;;;6.65;4.63;;;;;;;32.88;28.21;99440.91;4971518;28;20190;-56
2022/05/27 12:16:49;;;;;;;9.30;4.65;;;;;;;32.68;28.61;99445.09;4971271;28;20654;-56
2022/05/27 12:19:20;;;;;;;10.07;5.95;;;;;;;32.69;29.44;99440.59;4970842;28;20191;-56
2022/05/27 12:21:50;;;;;;;13.55;4.65;;;;;;;32.74;28.43;99435.81;4970848;28;20234;-56
2022/05/27 12:24:23;;;;;;;8.07;5.70;;;;;;;32.86;29.71;99434.84;4971618;28;20195;-56